Time;durP1;ratioP1;P1;durP2;ratioP2;P2;SDS_P1;SDS_P2;PMS_P1;PMS_P2;Temp;Humidity;BMP_temperature;BMP_pressure;BME280_temperature;BME280_humidity;BME280_pressure;Samples;Min_cycle;Max_cycle;Signal;HPM_P1;HPM_P2
2023/01/08 00:01:34;;;;;;;1.53;1.43;;;17.90;69.10;;;;;;5093016;27;43578;-71
2023/01/08 00:04:02;;;;;;;1.53;1.43;;;17.90;69.00;;;;;;5104599;27;43813;-72
2023/01/08 00:06:30;;;;;;;1.47;1.47;;;17.90;69.20;;;;;;5101447;27;44024;-71
2023/01/08 00:08:58;;;;;;;1.50;1.40;;;17.90;69.30;;;;;;5079573;27;43492;-71
2023/01/08 00:11:26;;;;;;;1.50;1.40;;;17.90;69.20;;;;;;5099294;27;43561;-71
2023/01/08 00:13:54;;;;;;;1.40;1.30;;;17.90;69.20;;;;;;5094431;27;43595;-72
2023/01/08 00:16:23;;;;;;;1.17;1.17;;;17.80;69.30;;;;;;5083297;27;44838;-70
2023/01/08 00:18:51;;;;;;;1.43;1.43;;;17.80;69.50;;;;;;5104225;27;43453;-72
2023/01/08 00:21:19;;;;;;;2.20;1.57;;;17.80;69.60;;;;;;5078139;27;43510;-72
2023/01/08 00:23:47;;;;;;;1.43;1.43;;;17.70;69.70;;;;;;5099949;27;43608;-72
2023/01/08 00:26:15;;;;;;;1.40;1.40;;;17.70;69.50;;;;;;5073932;27;44642;-73
2023/01/08 00:28:43;;;;;;;1.97;1.50;;;17.80;69.60;;;;;;5092083;27;44071;-71
2023/01/08 00:31:12;;;;;;;1.40;1.40;;;17.70;69.60;;;;;;5076923;27;43567;-72
2023/01/08 00:33:41;;;;;;;1.37;1.37;;;17.70;69.60;;;;;;5094649;27;44024;-71
2023/01/08 00:36:10;;;;;;;1.63;1.53;;;17.70;69.80;;;;;;5076189;27;45007;-71
2023/01/08 00:38:38;;;;;;;1.40;1.40;;;17.70;69.80;;;;;;5091834;27;43493;-73
2023/01/08 00:41:06;;;;;;;2.63;1.40;;;17.70;69.60;;;;;;5073384;27;43538;-73
2023/01/08 00:43:34;;;;;;;1.50;1.50;;;17.70;69.70;;;;;;5075701;27;45625;-72
2023/01/08 00:46:02;;;;;;;1.40;1.40;;;17.70;69.70;;;;;;5093376;27;43499;-71
2023/01/08 00:48:32;;;;;;;1.60;1.50;;;17.70;69.80;;;;;;5089178;27;43444;-71
2023/01/08 00:51:01;;;;;;;1.30;1.30;;;17.70;69.90;;;;;;5086945;27;43872;-70
2023/01/08 00:53:29;;;;;;;1.30;1.30;;;17.70;69.90;;;;;;5097310;27;44972;-72
2023/01/08 00:56:00;;;;;;;1.33;1.33;;;17.70;69.60;;;;;;5088805;27;44017;-71
2023/01/08 00:58:28;;;;;;;1.40;1.40;;;17.90;69.30;;;;;;5094527;27;43482;-71
2023/01/08 01:00:56;;;;;;;1.30;1.30;;;18.00;68.90;;;;;;5093847;27;43442;-71
2023/01/08 01:03:24;;;;;;;1.53;1.53;;;18.00;68.70;;;;;;5073470;27;45563;-72
2023/01/08 01:06:01;;;;;;;1.30;1.30;;;18.00;68.70;;;;;;5090902;27;43596;-72
2023/01/08 01:08:29;;;;;;;1.70;1.60;;;17.90;68.90;;;;;;5092571;27;43745;-71
2023/01/08 01:10:57;;;;;;;1.33;1.30;;;17.90;68.70;;;;;;5094267;27;43517;-71
2023/01/08 01:13:25;;;;;;;1.30;1.30;;;17.90;68.70;;;;;;5094540;27;43745;-71
2023/01/08 01:15:58;;;;;;;1.30;1.30;;;17.90;69.00;;;;;;5093374;27;43519;-71
2023/01/08 01:18:26;;;;;;;1.33;1.33;;;17.80;69.10;;;;;;5090786;27;43454;-72
2023/01/08 01:20:54;;;;;;;1.50;1.50;;;17.80;69.30;;;;;;5091573;27;43541;-72
2023/01/08 01:23:24;;;;;;;1.40;1.40;;;17.80;69.40;;;;;;5094990;27;43762;-72
2023/01/08 01:25:53;;;;;;;1.40;1.40;;;17.80;69.30;;;;;;5094546;27;43947;-70
2023/01/08 01:28:21;;;;;;;1.30;1.30;;;17.80;69.30;;;;;;5095227;27;43391;-71
2023/01/08 01:30:54;;;;;;;1.30;1.30;;;17.80;69.40;;;;;;5096774;27;43473;-71
2023/01/08 01:33:22;;;;;;;1.50;1.50;;;17.70;69.50;;;;;;5092622;27;44424;-70
2023/01/08 01:35:58;;;;;;;1.60;1.60;;;17.70;69.60;;;;;;5093099;27;43499;-70
2023/01/08 01:38:27;;;;;;;1.20;1.20;;;17.70;69.60;;;;;;5067238;28;43855;-71
2023/01/08 01:40:55;;;;;;;1.30;1.30;;;17.70;69.50;;;;;;5069455;28;43438;-72
2023/01/08 01:43:37;;;;;;;1.50;1.50;;;17.80;69.10;;;;;;5068899;28;45941;-72
2023/01/08 01:46:06;;;;;;;1.23;1.23;;;17.90;68.90;;;;;;5071641;28;43567;-71
2023/01/08 01:48:34;;;;;;;1.37;1.30;;;17.90;68.90;;;;;;5066017;28;43504;-71
2023/01/08 01:51:02;;;;;;;1.20;1.20;;;17.90;69.00;;;;;;5072071;28;43497;-72
2023/01/08 01:53:32;;;;;;;1.47;1.47;;;17.80;69.10;;;;;;5071153;28;43856;-72
2023/01/08 01:56:00;;;;;;;1.40;1.40;;;17.80;69.00;;;;;;5067897;28;45271;-71
2023/01/08 01:58:29;;;;;;;1.40;1.40;;;17.80;69.00;;;;;;5075025;28;43517;-70
2023/01/08 02:00:58;;;;;;;1.37;1.37;;;17.80;69.20;;;;;;5069913;28;43484;-71
2023/01/08 02:03:28;;;;;;;1.20;1.20;;;17.80;69.30;;;;;;5068868;28;43591;-71
2023/01/08 02:05:59;;;;;;;1.50;1.50;;;17.70;69.40;;;;;;5069547;28;43920;-71
2023/01/08 02:08:30;;;;;;;1.33;1.33;;;17.70;69.50;;;;;;5070996;28;44042;-72
2023/01/08 02:11:04;;;;;;;1.50;1.50;;;17.70;69.40;;;;;;5076914;28;43529;-72
2023/01/08 02:13:34;;;;;;;1.40;1.40;;;17.70;69.40;;;;;;5073532;28;43858;-72
2023/01/08 02:16:05;;;;;;;1.27;1.27;;;17.70;69.50;;;;;;5071368;28;43500;-72
2023/01/08 02:18:36;;;;;;;1.50;1.50;;;17.70;69.50;;;;;;5071800;28;43418;-71
2023/01/08 02:21:07;;;;;;;1.23;1.23;;;17.70;69.60;;;;;;5072462;28;43548;-72
2023/01/08 02:23:41;;;;;;;1.40;1.40;;;17.60;69.60;;;;;;5061839;28;44120;-74
2023/01/08 02:26:13;;;;;;;1.47;1.30;;;17.70;69.50;;;;;;5074353;27;43440;-72
2023/01/08 02:28:42;;;;;;;1.40;1.40;;;17.80;69.20;;;;;;5071666;28;43999;-72
2023/01/08 02:31:11;;;;;;;1.10;1.10;;;17.90;68.80;;;;;;5072027;28;43538;-72
2023/01/08 02:33:39;;;;;;;1.20;1.20;;;17.90;68.50;;;;;;5066456;28;43602;-71
2023/01/08 02:36:27;;;;;;;1.30;1.30;;;17.90;68.70;;;;;;5069965;28;43566;-71
2023/01/08 02:39:08;;;;;;;1.40;1.40;;;17.90;69.00;;;;;;5070006;28;44207;-72
2023/01/08 02:41:44;;;;;;;1.30;1.30;;;17.90;68.90;;;;;;5066119;28;43671;-72
2023/01/08 02:44:12;;;;;;;1.20;1.20;;;17.90;68.90;;;;;;5068740;28;43908;-72
2023/01/08 02:46:40;;;;;;;1.20;1.20;;;17.80;69.00;;;;;;5071788;28;44852;-72
2023/01/08 02:49:10;;;;;;;1.40;1.40;;;17.80;69.20;;;;;;5069233;28;43452;-71
2023/01/08 02:51:40;;;;;;;1.30;1.30;;;17.70;69.20;;;;;;5070663;28;43588;-72
2023/01/08 02:54:09;;;;;;;1.27;1.27;;;17.70;69.30;;;;;;5077251;28;43861;-72
2023/01/08 02:56:40;;;;;;;1.30;1.30;;;17.70;69.20;;;;;;5065670;28;44018;-72
2023/01/08 02:59:08;;;;;;;1.10;1.10;;;17.70;69.20;;;;;;5069394;28;44129;-71
2023/01/08 03:01:36;;;;;;;1.20;1.20;;;17.70;69.40;;;;;;5076126;28;44091;-72
2023/01/08 03:04:06;;;;;;;1.20;1.20;;;17.70;69.50;;;;;;5071787;28;43714;-71
2023/01/08 03:06:34;;;;;;;1.47;1.40;;;17.70;69.60;;;;;;5075383;28;43572;-71
2023/01/08 03:09:02;;;;;;;1.00;1.00;;;17.70;69.60;;;;;;5072033;28;43496;-72
2023/01/08 03:11:31;;;;;;;1.20;1.20;;;17.70;69.40;;;;;;5077189;28;43441;-72
2023/01/08 03:14:04;;;;;;;1.20;1.20;;;17.70;69.50;;;;;;5072824;28;43769;-72
2023/01/08 03:16:34;;;;;;;1.40;1.20;;;17.70;69.50;;;;;;5071175;28;43513;-72
2023/01/08 03:19:05;;;;;;;1.13;1.13;;;17.70;69.60;;;;;;5068867;28;43468;-71
2023/01/08 03:21:34;;;;;;;1.30;1.30;;;17.60;69.60;;;;;;5074584;28;43390;-71
2023/01/08 03:24:02;;;;;;;1.20;1.20;;;17.60;69.60;;;;;;5067564;28;45817;-72
2023/01/08 03:26:30;;;;;;;1.10;1.10;;;17.70;69.60;;;;;;5068978;28;44054;-71
2023/01/08 03:29:02;;;;;;;1.20;1.20;;;17.80;69.30;;;;;;5069582;28;43490;-71
2023/01/08 03:31:33;;;;;;;1.20;1.20;;;17.90;68.80;;;;;;5066593;28;43503;-72
2023/01/08 03:34:01;;;;;;;1.30;1.30;;;18.00;68.60;;;;;;5072334;28;44113;-71
2023/01/08 03:36:29;;;;;;;1.20;1.20;;;17.90;68.40;;;;;;5075167;28;44014;-72
2023/01/08 03:38:59;;;;;;;1.13;1.13;;;17.90;68.70;;;;;;5082823;27;44055;-72
2023/01/08 03:41:27;;;;;;;1.47;1.20;;;17.90;68.70;;;;;;5091685;27;44073;-72
2023/01/08 03:43:56;;;;;;;1.30;1.30;;;17.90;68.70;;;;;;5092670;27;43752;-71
2023/01/08 03:46:28;;;;;;;1.10;1.10;;;17.80;68.80;;;;;;5073768;27;45111;-71
2023/01/08 03:48:56;;;;;;;1.27;1.17;;;17.80;69.00;;;;;;5067613;28;43407;-71
2023/01/08 03:51:24;;;;;;;1.10;1.10;;;17.80;69.20;;;;;;5090814;27;43522;-72
2023/01/08 03:53:53;;;;;;;1.10;1.10;;;17.70;69.20;;;;;;5093011;27;43923;-72
2023/01/08 03:56:21;;;;;;;1.20;1.20;;;17.70;69.10;;;;;;5082831;27;43482;-71
2023/01/08 03:58:49;;;;;;;1.27;1.27;;;17.70;69.10;;;;;;5093572;27;43459;-71
2023/01/08 04:01:17;;;;;;;1.10;1.10;;;17.70;69.20;;;;;;5088974;27;43613;-71
2023/01/08 04:03:46;;;;;;;1.10;1.10;;;17.70;69.30;;;;;;5092171;27;44027;-72
2023/01/08 04:06:14;;;;;;;1.10;1.10;;;17.70;69.40;;;;;;5070362;28;44421;-72
2023/01/08 04:08:42;;;;;;;1.10;1.10;;;17.60;69.30;;;;;;5089267;27;43411;-71
2023/01/08 04:11:10;;;;;;;1.20;1.20;;;17.70;69.40;;;;;;5095734;27;43488;-71
2023/01/08 04:13:38;;;;;;;1.20;1.20;;;17.70;69.40;;;;;;5090159;27;44086;-71
2023/01/08 04:16:06;;;;;;;1.23;1.23;;;17.70;69.50;;;;;;5091207;27;43507;-71
2023/01/08 04:18:34;;;;;;;1.40;1.40;;;17.60;69.40;;;;;;5086981;27;43869;-73
2023/01/08 04:21:04;;;;;;;1.83;1.73;;;17.60;69.50;;;;;;5088767;27;43557;-71
2023/01/08 04:23:32;;;;;;;2.10;2.00;;;17.60;69.50;;;;;;5081723;27;44001;-72
2023/01/08 04:26:00;;;;;;;3.00;2.57;;;17.60;69.30;;;;;;5089449;27;43502;-71
2023/01/08 04:28:28;;;;;;;5.13;3.33;;;17.80;69.10;;;;;;5084026;27;43537;-73
2023/01/08 04:30:55;;;;;;;4.10;3.10;;;17.90;68.70;;;;;;5083607;27;43511;-70
2023/01/08 04:33:24;;;;;;;6.00;3.80;;;17.90;68.30;;;;;;5068481;28;45869;-71
2023/01/08 04:35:52;;;;;;;9.10;4.37;;;17.90;68.30;;;;;;5092532;27;43426;-71
2023/01/08 04:38:21;;;;;;;8.60;4.53;;;17.90;68.50;;;;;;5088524;27;43488;-71
2023/01/08 04:40:49;;;;;;;10.57;5.30;;;17.90;68.60;;;;;;5090442;27;43497;-71
2023/01/08 04:43:17;;;;;;;7.67;4.60;;;17.90;68.50;;;;;;5087950;27;43745;-71
2023/01/08 04:45:45;;;;;;;9.30;4.77;;;17.90;68.70;;;;;;5087483;27;43410;-72
2023/01/08 04:48:13;;;;;;;8.63;5.17;;;17.80;68.70;;;;;;5081001;27;43493;-71
2023/01/08 04:50:41;;;;;;;13.70;6.03;;;17.80;68.90;;;;;;5086923;27;43597;-72
2023/01/08 04:53:09;;;;;;;12.87;6.23;;;17.70;69.00;;;;;;5083323;27;45065;-71
2023/01/08 04:55:38;;;;;;;16.27;6.40;;;17.70;68.90;;;;;;5081556;27;43410;-70
2023/01/08 04:58:06;;;;;;;11.47;5.90;;;17.70;68.90;;;;;;5089051;27;43518;-72
2023/01/08 05:00:34;;;;;;;11.00;5.43;;;17.70;69.10;;;;;;5088029;27;43422;-71
2023/01/08 05:03:02;;;;;;;10.67;5.93;;;17.70;69.10;;;;;;5089064;27;43845;-72
2023/01/08 05:05:30;;;;;;;16.37;6.80;;;17.70;70.00;;;;;;5089576;27;43573;-72
2023/01/08 05:07:58;;;;;;;19.03;7.50;;;17.60;69.20;;;;;;5094106;27;43501;-70
2023/01/08 05:10:26;;;;;;;18.53;7.50;;;17.70;69.10;;;;;;5093828;27;43376;-72
2023/01/08 05:12:59;;;;;;;18.23;7.63;;;17.80;68.90;;;;;;5096585;27;43933;-72
2023/01/08 05:15:27;;;;;;;20.70;8.20;;;17.90;68.60;;;;;;5092965;27;43418;-71
2023/01/08 05:17:59;;;;;;;20.57;7.70;;;17.90;68.40;;;;;;5092751;27;43517;-71
2023/01/08 05:20:27;;;;;;;20.43;8.37;;;17.90;68.60;;;;;;5096761;27;43794;-72
2023/01/08 05:22:57;;;;;;;17.90;7.30;;;17.80;68.60;;;;;;5091991;27;43600;-71
2023/01/08 05:25:25;;;;;;;17.10;7.50;;;17.80;68.50;;;;;;5090808;27;43605;-72
2023/01/08 05:27:53;;;;;;;18.07;7.70;;;17.80;68.50;;;;;;5090568;27;43534;-71
2023/01/08 05:30:22;;;;;;;14.17;7.23;;;17.80;68.70;;;;;;5091254;27;43534;-72
2023/01/08 05:32:50;;;;;;;16.17;7.50;;;17.80;68.90;;;;;;5075956;27;45599;-72
2023/01/08 05:35:18;;;;;;;19.23;8.00;;;17.70;68.80;;;;;;5091926;27;43457;-71
2023/01/08 05:37:46;;;;;;;17.47;8.60;;;17.70;68.90;;;;;;5092422;27;43513;-72
2023/01/08 05:40:14;;;;;;;19.77;8.37;;;17.70;68.80;;;;;;5067509;27;43494;-73
2023/01/08 05:42:42;;;;;;;17.23;8.20;;;17.70;68.80;;;;;;5094400;27;43764;-71
2023/01/08 05:45:10;;;;;;;17.93;7.80;;;17.70;68.90;;;;;;5082078;27;44814;-72
2023/01/08 05:47:39;;;;;;;15.27;7.40;;;17.70;69.00;;;;;;5091662;27;43497;-71
2023/01/08 05:50:07;;;;;;;20.03;9.27;;;17.70;69.10;;;;;;5076383;27;43872;-70
2023/01/08 05:52:35;;;;;;;18.27;8.43;;;17.70;69.10;;;;;;5093655;27;43853;-72
2023/01/08 05:55:03;;;;;;;18.67;8.53;;;17.70;68.90;;;;;;5094154;27;43482;-71
2023/01/08 05:57:31;;;;;;;18.47;8.57;;;17.80;68.70;;;;;;5071004;27;43452;-72
2023/01/08 05:59:59;;;;;;;18.67;8.43;;;17.90;68.40;;;;;;5090357;27;43511;-72
2023/01/08 06:02:27;;;;;;;16.47;8.53;;;17.90;68.30;;;;;;5091149;27;43852;-73
2023/01/08 06:04:57;;;;;;;18.07;8.13;;;17.90;68.50;;;;;;5093007;27;44566;-71
2023/01/08 06:07:24;;;;;;;17.80;8.30;;;17.80;68.60;;;;;;5092233;27;43537;-73
2023/01/08 06:09:53;;;;;;;19.43;8.37;;;17.80;68.60;;;;;;5094996;27;43552;-71
2023/01/08 06:12:21;;;;;;;19.23;8.00;;;17.80;68.50;;;;;;5094762;27;43937;-73
2023/01/08 06:14:48;;;;;;;14.13;7.63;;;17.80;68.70;;;;;;5090934;27;43407;-70
2023/01/08 06:17:16;;;;;;;15.13;7.23;;;17.80;68.80;;;;;;5090911;27;43450;-71
2023/01/08 06:19:46;;;;;;;18.07;8.13;;;17.70;68.80;;;;;;5079928;27;44437;-71
2023/01/08 06:22:15;;;;;;;18.43;8.27;;;17.70;68.90;;;;;;5092706;27;43908;-72
2023/01/08 06:24:43;;;;;;;23.27;9.10;;;17.70;68.90;;;;;;5073903;27;44895;-72
2023/01/08 06:27:11;;;;;;;20.63;8.93;;;17.80;68.70;;;;;;5089965;27;43739;-74
2023/01/08 06:29:39;;;;;;;19.50;8.53;;;17.80;68.40;;;;;;5071979;27;43582;-71
2023/01/08 06:32:07;;;;;;;16.97;8.03;;;17.90;68.30;;;;;;5094556;27;44007;-73
2023/01/08 06:34:35;;;;;;;16.90;8.10;;;17.90;68.50;;;;;;5092768;27;43421;-72
2023/01/08 06:37:04;;;;;;;17.90;8.20;;;17.80;68.60;;;;;;5072542;27;45488;-71
2023/01/08 06:39:33;;;;;;;16.23;8.27;;;17.80;68.60;;;;;;5088396;27;43489;-71
2023/01/08 06:42:01;;;;;;;18.07;8.43;;;17.80;68.50;;;;;;5093157;27;44058;-72
2023/01/08 06:44:29;;;;;;;16.27;8.13;;;17.80;68.60;;;;;;5090271;27;43462;-71
2023/01/08 06:46:57;;;;;;;16.17;7.73;;;17.80;68.70;;;;;;5095195;27;43486;-71
2023/01/08 06:49:25;;;;;;;13.23;7.97;;;17.70;68.70;;;;;;5091383;27;43486;-72
2023/01/08 06:51:53;;;;;;;18.23;8.73;;;17.70;68.80;;;;;;5092426;27;43996;-71
2023/01/08 06:54:21;;;;;;;16.97;8.43;;;17.70;68.90;;;;;;5094750;27;43915;-72
2023/01/08 06:56:50;;;;;;;14.20;7.40;;;17.70;68.80;;;;;;5077773;27;43471;-71
2023/01/08 06:59:21;;;;;;;14.43;7.40;;;17.70;68.90;;;;;;5091066;27;43583;-71
2023/01/08 07:01:49;;;;;;;12.27;6.83;;;17.70;68.90;;;;;;5091379;27;44095;-71
2023/01/08 07:04:17;;;;;;;16.33;7.57;;;17.70;69.00;;;;;;5095437;27;43311;-71
2023/01/08 07:06:45;;;;;;;17.20;7.73;;;17.60;69.00;;;;;;5091319;27;43489;-71
2023/01/08 07:09:13;;;;;;;15.70;8.00;;;17.60;69.00;;;;;;5094829;27;43555;-72
2023/01/08 07:11:41;;;;;;;16.77;7.93;;;17.70;68.80;;;;;;5091168;27;43678;-72
2023/01/08 07:14:11;;;;;;;15.10;7.70;;;17.80;68.50;;;;;;5087590;27;43472;-71
2023/01/08 07:16:39;;;;;;;13.60;7.13;;;17.90;68.20;;;;;;5091392;27;43480;-72
2023/01/08 07:19:07;;;;;;;15.23;7.63;;;17.90;68.00;;;;;;5075601;27;43557;-73
2023/01/08 07:21:34;;;;;;;13.60;6.87;;;17.90;68.10;;;;;;5087781;27;44019;-71
2023/01/08 07:24:03;;;;;;;14.23;7.90;;;17.90;68.20;;;;;;5066295;28;44976;-71
2023/01/08 07:26:31;;;;;;;13.00;6.60;;;17.90;68.10;;;;;;5086928;27;43461;-72
2023/01/08 07:28:59;;;;;;;12.23;7.10;;;17.90;68.30;;;;;;5095080;27;43831;-71
2023/01/08 07:31:28;;;;;;;10.50;6.17;;;17.80;68.30;;;;;;5090707;27;43913;-71
2023/01/08 07:33:56;;;;;;;14.00;7.70;;;17.80;68.50;;;;;;5092296;27;43375;-71
2023/01/08 07:36:24;;;;;;;15.30;7.27;;;17.80;68.70;;;;;;5092261;27;43540;-72
2023/01/08 07:38:52;;;;;;;14.70;7.53;;;17.70;68.70;;;;;;5091940;27;43502;-71
2023/01/08 07:41:20;;;;;;;14.30;7.40;;;17.70;68.60;;;;;;5092054;27;43914;-71
2023/01/08 07:43:48;;;;;;;12.03;6.87;;;17.70;68.70;;;;;;5089513;27;43704;-71
2023/01/08 07:46:16;;;;;;;11.63;6.80;;;17.70;68.80;;;;;;5094606;27;43696;-71
2023/01/08 07:48:45;;;;;;;13.43;7.30;;;17.70;68.90;;;;;;5093061;27;44173;-71
2023/01/08 07:51:13;;;;;;;12.77;7.30;;;17.70;69.00;;;;;;5068055;27;45818;-72
2023/01/08 07:53:41;;;;;;;13.30;7.00;;;17.60;68.90;;;;;;5090012;27;43453;-71
2023/01/08 07:56:10;;;;;;;12.50;6.97;;;17.60;68.80;;;;;;5087873;27;43454;-72
2023/01/08 07:58:37;;;;;;;12.67;7.10;;;17.70;68.90;;;;;;5091619;27;43407;-71
2023/01/08 08:01:08;;;;;;;11.77;6.43;;;17.70;69.00;;;;;;5072600;28;45981;-71
2023/01/08 08:03:36;;;;;;;10.93;6.43;;;17.60;69.10;;;;;;5068964;28;44705;-72
2023/01/08 08:06:06;;;;;;;11.43;6.83;;;17.60;69.00;;;;;;5087177;27;44027;-71
2023/01/08 08:08:34;;;;;;;11.53;6.37;;;17.60;69.10;;;;;;5076426;27;43465;-71
2023/01/08 08:11:02;;;;;;;11.23;6.67;;;17.60;68.90;;;;;;5087148;27;43948;-71
2023/01/08 08:13:30;;;;;;;13.37;7.00;;;17.70;68.60;;;;;;5087934;27;43464;-71
2023/01/08 08:16:01;;;;;;;13.33;6.93;;;17.80;69.00;;;;;;5069957;27;43479;-71
2023/01/08 08:18:29;;;;;;;12.40;6.63;;;17.90;68.00;;;;;;5085479;27;44257;-71
2023/01/08 08:20:57;;;;;;;9.53;6.33;;;17.90;68.20;;;;;;5072437;27;45616;-71
2023/01/08 08:23:26;;;;;;;10.33;6.27;;;17.80;68.30;;;;;;5069545;28;44677;-71
2023/01/08 08:25:54;;;;;;;11.90;6.37;;;17.80;68.20;;;;;;5090101;27;43422;-71
2023/01/08 08:28:22;;;;;;;9.73;6.20;;;17.80;68.30;;;;;;5089637;27;43526;-71
2023/01/08 08:30:51;;;;;;;8.87;6.27;;;17.80;68.50;;;;;;5090253;27;43911;-71
2023/01/08 08:33:19;;;;;;;11.70;6.37;;;17.80;68.70;;;;;;5098951;27;43425;-72
2023/01/08 08:35:49;;;;;;;9.83;6.10;;;17.70;68.70;;;;;;5100042;27;43435;-71
2023/01/08 08:38:17;;;;;;;8.93;6.00;;;17.70;68.80;;;;;;5103210;27;43492;-71
2023/01/08 08:40:46;;;;;;;9.47;6.07;;;17.70;68.80;;;;;;5101921;27;43915;-71
2023/01/08 08:43:14;;;;;;;10.07;5.50;;;17.70;68.80;;;;;;5082310;27;43440;-72
2023/01/08 08:45:42;;;;;;;8.33;5.67;;;17.70;68.80;;;;;;5102544;27;43482;-72
2023/01/08 08:48:10;;;;;;;9.87;5.63;;;17.70;69.00;;;;;;5097140;27;43534;-72
2023/01/08 08:50:38;;;;;;;9.83;6.30;;;17.60;69.00;;;;;;5098242;27;45098;-71
2023/01/08 08:53:06;;;;;;;7.07;5.23;;;17.60;69.00;;;;;;5097861;27;43324;-71
2023/01/08 08:55:34;;;;;;;6.83;5.50;;;17.60;69.00;;;;;;5079886;28;43525;-72
2023/01/08 08:58:05;;;;;;;9.47;5.23;;;17.70;68.80;;;;;;5099642;27;43376;-71
2023/01/08 09:00:33;;;;;;;8.70;5.80;;;17.80;68.50;;;;;;5097243;27;43756;-71
2023/01/08 09:03:01;;;;;;;8.17;5.70;;;17.90;68.10;;;;;;5098185;27;43347;-72
2023/01/08 09:05:29;;;;;;;8.57;5.80;;;17.90;68.10;;;;;;5098948;27;43484;-72
2023/01/08 09:07:57;;;;;;;8.27;5.70;;;17.80;68.30;;;;;;5076551;27;43870;-72
2023/01/08 09:10:25;;;;;;;8.13;5.17;;;17.80;68.30;;;;;;5075611;27;46161;-73
2023/01/08 09:12:53;;;;;;;7.33;4.70;;;17.80;68.20;;;;;;5095254;27;44022;-71
2023/01/08 09:15:22;;;;;;;8.90;5.20;;;17.80;68.40;;;;;;5085168;27;43477;-72
2023/01/08 09:17:54;;;;;;;9.87;5.73;;;17.80;68.70;;;;;;5094791;27;43566;-71
2023/01/08 09:20:22;;;;;;;8.60;5.33;;;17.70;69.40;;;;;;5097952;27;44015;-71
2023/01/08 09:22:50;;;;;;;7.07;4.83;;;17.70;68.80;;;;;;5105755;27;43422;-72
2023/01/08 09:25:18;;;;;;;7.03;5.00;;;17.60;68.70;;;;;;5097672;27;44007;-72
2023/01/08 09:27:46;;;;;;;7.37;4.70;;;17.60;68.70;;;;;;5088034;27;43920;-72
2023/01/08 09:30:14;;;;;;;6.27;4.73;;;17.60;68.80;;;;;;5105506;27;44163;-71
2023/01/08 09:32:43;;;;;;;7.07;4.83;;;17.60;68.90;;;;;;5093345;27;43478;-71
2023/01/08 09:35:11;;;;;;;5.13;4.40;;;17.60;69.00;;;;;;5097157;27;43464;-73
2023/01/08 09:37:39;;;;;;;5.60;4.93;;;17.60;69.00;;;;;;5097356;27;43534;-72
2023/01/08 09:40:09;;;;;;;7.13;4.80;;;17.60;69.00;;;;;;5100751;27;43910;-72
2023/01/08 09:42:37;;;;;;;5.90;4.53;;;17.70;68.90;;;;;;5097706;27;44053;-71
2023/01/08 09:45:06;;;;;;;4.80;4.30;;;17.80;68.60;;;;;;5099567;27;43390;-73
2023/01/08 09:47:36;;;;;;;6.07;4.67;;;17.90;68.20;;;;;;5102739;27;43545;-70
2023/01/08 09:50:07;;;;;;;6.20;4.53;;;17.90;68.10;;;;;;5104897;27;44034;-72
2023/01/08 09:52:36;;;;;;;6.50;4.80;;;17.80;68.30;;;;;;5103806;27;43462;-70
2023/01/08 09:55:09;;;;;;;6.63;4.70;;;17.80;68.40;;;;;;5084842;27;44038;-71
2023/01/08 09:57:37;;;;;;;6.03;3.93;;;17.80;68.40;;;;;;5100365;27;44049;-71
2023/01/08 10:00:10;;;;;;;5.40;4.23;;;17.80;68.40;;;;;;5098703;27;43974;-71
2023/01/08 10:02:39;;;;;;;4.90;4.40;;;17.70;68.50;;;;;;5097470;27;43545;-73
2023/01/08 10:05:11;;;;;;;4.50;4.10;;;17.70;68.60;;;;;;5100787;27;43493;-71
2023/01/08 10:07:39;;;;;;;5.77;4.13;;;17.70;68.80;;;;;;5092029;27;43548;-71
2023/01/08 10:10:15;;;;;;;5.70;4.67;;;17.70;68.90;;;;;;5094290;27;43945;-72
2023/01/08 10:12:43;;;;;;;4.50;4.07;;;17.70;68.90;;;;;;5100874;27;43397;-71
2023/01/08 10:15:13;;;;;;;4.80;4.10;;;17.70;68.90;;;;;;5100077;27;43418;-72
2023/01/08 10:17:42;;;;;;;6.57;4.27;;;17.60;69.00;;;;;;5098802;27;43381;-72
2023/01/08 10:20:13;;;;;;;4.87;3.77;;;17.60;69.00;;;;;;5071653;28;45823;-72
2023/01/08 10:22:41;;;;;;;4.80;4.30;;;17.60;69.20;;;;;;5079064;27;45041;-72
2023/01/08 10:25:11;;;;;;;4.40;4.00;;;17.60;69.40;;;;;;5089881;27;43523;-72
2023/01/08 10:27:46;;;;;;;4.30;3.90;;;17.60;69.30;;;;;;5093589;27;43451;-70
2023/01/08 10:30:18;;;;;;;4.63;3.73;;;17.80;69.00;;;;;;5092931;27;45118;-72
2023/01/08 10:32:51;;;;;;;5.30;4.17;;;17.90;68.70;;;;;;5099173;27;43527;-72
2023/01/08 10:35:24;;;;;;;4.03;3.50;;;17.90;68.60;;;;;;5077778;27;43999;-72
2023/01/08 10:37:52;;;;;;;3.80;3.50;;;17.80;68.60;;;;;;5106625;27;43956;-72
2023/01/08 10:40:28;;;;;;;3.90;3.60;;;17.80;68.90;;;;;;5103229;27;43849;-71
2023/01/08 10:42:56;;;;;;;3.87;3.53;;;17.80;68.80;;;;;;5094920;27;43412;-72
2023/01/08 10:45:25;;;;;;;3.70;3.40;;;17.80;68.90;;;;;;5104053;27;43400;-71
2023/01/08 10:47:56;;;;;;;3.47;3.27;;;17.80;69.00;;;;;;5098392;27;43375;-72
2023/01/08 10:50:27;;;;;;;3.67;3.37;;;17.80;69.10;;;;;;5099262;27;43936;-71
2023/01/08 10:52:56;;;;;;;3.57;3.27;;;17.70;69.10;;;;;;5075253;27;44723;-71
2023/01/08 10:55:25;;;;;;;3.93;3.60;;;17.70;69.40;;;;;;5093667;27;43464;-71
2023/01/08 10:57:55;;;;;;;3.53;3.23;;;17.70;69.30;;;;;;5076209;27;43648;-72
2023/01/08 11:00:25;;;;;;;3.17;2.97;;;17.70;69.30;;;;;;5097175;27;43675;-70
2023/01/08 11:02:52;;;;;;;3.53;3.23;;;17.70;69.40;;;;;;5072847;28;44712;-71
2023/01/08 11:05:20;;;;;;;3.33;3.13;;;17.70;69.50;;;;;;5088369;27;43438;-72
2023/01/08 11:07:51;;;;;;;3.87;3.57;;;17.70;69.60;;;;;;5090865;27;43735;-71
2023/01/08 11:10:21;;;;;;;3.43;3.13;;;17.60;69.80;;;;;;5094744;27;45092;-70
2023/01/08 11:12:55;;;;;;;3.30;3.10;;;17.70;69.80;;;;;;5092111;27;43455;-71
2023/01/08 11:15:34;;;;;;;3.17;3.00;;;17.70;69.70;;;;;;5094942;27;43447;-72
2023/01/08 11:18:17;;;;;;;3.23;2.93;;;17.70;69.80;;;;;;5089430;27;43570;-71
2023/01/08 11:20:46;;;;;;;3.10;2.90;;;17.70;69.90;;;;;;5089077;27;43765;-71
2023/01/08 11:23:19;;;;;;;3.50;3.27;;;17.70;70.00;;;;;;5092993;27;43415;-71
2023/01/08 11:25:57;;;;;;;3.00;2.80;;;17.70;70.20;;;;;;5094331;27;43999;-70
2023/01/08 11:28:29;;;;;;;3.13;2.97;;;17.70;70.10;;;;;;5090669;27;43427;-72
2023/01/08 11:31:03;;;;;;;3.23;3.03;;;17.90;69.80;;;;;;5083275;27;44593;-71
2023/01/08 11:33:31;;;;;;;3.13;2.90;;;18.00;69.50;;;;;;5088471;27;43541;-72
2023/01/08 11:36:01;;;;;;;3.10;2.90;;;18.00;69.20;;;;;;5091266;27;43458;-73
2023/01/08 11:38:31;;;;;;;3.10;2.90;;;18.00;69.20;;;;;;5093346;27;43506;-71
2023/01/08 11:41:05;;;;;;;2.90;2.80;;;17.90;69.50;;;;;;5076679;27;46053;-70
2023/01/08 11:43:36;;;;;;;3.47;3.17;;;17.90;69.50;;;;;;5091746;27;43422;-70
2023/01/08 11:46:15;;;;;;;2.53;2.43;;;17.90;69.40;;;;;;5086144;27;43597;-71
2023/01/08 11:49:22;;;;;;;2.97;2.73;;;17.90;69.60;;;;;;5094786;27;43407;-72
2023/01/08 11:51:58;;;;;;;3.63;3.13;;;17.80;69.60;;;;;;5085954;27;44044;-72
2023/01/08 11:54:34;;;;;;;3.83;3.50;;;17.80;69.60;;;;;;5096396;27;43518;-70
2023/01/08 11:57:12;;;;;;;3.10;2.90;;;17.80;69.60;;;;;;5093823;27;43496;-72
2023/01/08 11:59:54;;;;;;;3.20;3.00;;;17.80;69.50;;;;;;5095795;27;43392;-71
2023/01/08 12:02:26;;;;;;;3.47;3.20;;;17.80;69.70;;;;;;5089949;27;43897;-72
2023/01/08 12:05:21;;;;;;;4.10;3.13;;;17.80;69.70;;;;;;5100625;27;43771;-71
2023/01/08 12:07:52;;;;;;;3.10;2.90;;;17.70;69.70;;;;;;5083554;27;43530;-71
2023/01/08 12:10:24;;;;;;;4.00;3.03;;;17.70;69.70;;;;;;5097993;27;43430;-71
2023/01/08 12:12:57;;;;;;;3.00;2.77;;;17.80;69.60;;;;;;5085662;27;43726;-71
2023/01/08 12:15:28;;;;;;;3.50;3.20;;;17.80;69.20;;;;;;5094983;27;44254;-73
2023/01/08 12:18:14;;;;;;;3.00;2.80;;;17.90;69.10;;;;;;5080359;27;43431;-71
2023/01/08 12:20:45;;;;;;;2.70;2.60;;;17.90;69.20;;;;;;5099326;27;43504;-70
2023/01/08 12:23:19;;;;;;;3.07;2.90;;;17.80;69.20;;;;;;5079021;27;46322;-71
2023/01/08 12:25:53;;;;;;;2.97;2.77;;;17.80;69.30;;;;;;5078683;27;46241;-72
2023/01/08 12:28:31;;;;;;;2.80;2.60;;;17.80;69.30;;;;;;5080305;27;43466;-72
2023/01/08 12:31:27;;;;;;;3.13;2.90;;;17.80;69.40;;;;;;5067824;27;43580;-72
2023/01/08 12:33:56;;;;;;;2.80;2.60;;;17.80;69.40;;;;;;5087768;27;44095;-70
2023/01/08 12:36:25;;;;;;;2.70;2.50;;;17.80;69.60;;;;;;5091234;27;43441;-71
2023/01/08 12:38:55;;;;;;;3.00;2.80;;;17.70;69.60;;;;;;5085280;27;43387;-71
2023/01/08 12:41:24;;;;;;;3.17;2.40;;;17.70;69.70;;;;;;5091391;27;43539;-70
2023/01/08 12:43:54;;;;;;;2.73;2.53;;;17.80;69.80;;;;;;5093647;27;43890;-70
2023/01/08 12:46:22;;;;;;;2.70;2.60;;;17.90;69.50;;;;;;5066779;28;43466;-72
2023/01/08 12:48:51;;;;;;;2.23;2.10;;;17.90;69.30;;;;;;5068848;27;44061;-71
2023/01/08 12:51:24;;;;;;;2.70;2.60;;;17.90;70.10;;;;;;5066100;28;43611;-71
2023/01/08 12:53:55;;;;;;;2.30;2.20;;;17.90;69.60;;;;;;5087899;27;46190;-72
2023/01/08 12:56:30;;;;;;;2.60;2.50;;;17.90;69.90;;;;;;5087236;27;43565;-71